< Cyclone 199610 1996 Season Cyclone 199612 >
Cyclone 199611 (DENNIS)
General InformationTrack Information on Google MapsDetailed Wind InformationList of All Images || ResourceGoogle EarthGE AnimationAtom FeedGeoJSON
Detalied Best Track (Time Zone = UTC)
Year Month Day Hour Lat. Long. Pressure (hPa) Wind (kt) Class Image Chart
1996 2 13 00 -13.9 140.2 1000 25 2 Image --
1996 2 13 06 -13.5 140.1 998 25 2 Image --
1996 2 13 12 -13.2 140.0 998 25 2 Image --
1996 2 13 18 -13.0 140.0 996 30 2 Image --
1996 2 14 00 -12.8 140.0 994 35 3 Image --
1996 2 14 06 -12.6 140.0 994 35 3 Image --
1996 2 14 12 -12.4 140.1 994 35 3 Image --
1996 2 14 18 -12.2 140.2 996 30 2 Image --
1996 2 15 00 -12.0 140.3 1001 30 2 Image --
1996 2 15 06 -12.0 141.4 1000 30 2 Image --
1996 2 15 12 -12.2 142.3 998 30 2 Image --
1996 2 15 18 -12.3 143.5 996 40 3 Image --
1996 2 16 00 -12.4 144.9 995 40 3 Image --
1996 2 16 06 -12.9 146.3 995 40 3 Image --
1996 2 16 12 -13.2 147.6 990 40 3 Image --
1996 2 16 18 -13.6 148.5 990 35 3 Image --
1996 2 17 00 -13.8 149.5 990 35 3 Image --
1996 2 17 06 -14.0 150.0 990 35 3 Image --
1996 2 17 12 -14.2 150.5 995 35 3 Image --
1996 2 17 18 -14.5 150.9 995 35 3 Image --
1996 2 18 00 -15.0 150.8 995 30 2 Image --
1996 2 18 06 -15.6 151.0 1000 25 2 Image --
< Cyclone 199610 1996 Season Cyclone 199612 >

Help